createdAt,value
2022-08-22T00:00:16.875Z,14.53
2022-08-22T00:02:46.587Z,14.89
2022-08-22T00:02:59.131Z,14.77
2022-08-22T00:03:47.574Z,14.50
2022-08-22T00:06:56.681Z,14.48
2022-08-22T00:10:04.757Z,14.47
2022-08-22T00:13:13.351Z,14.46
2022-08-22T00:16:21.046Z,14.45
2022-08-22T00:19:29.474Z,14.43
2022-08-22T00:22:37.987Z,14.42
2022-08-22T00:25:48.792Z,14.40
2022-08-22T00:28:58.429Z,14.39
2022-08-22T00:32:07.887Z,14.37
2022-08-22T00:35:21.139Z,14.37
2022-08-22T00:38:28.434Z,14.35
2022-08-22T00:41:43.102Z,14.34
2022-08-22T00:45:15.404Z,14.32
2022-08-22T00:48:28.850Z,14.29
2022-08-22T00:51:52.224Z,14.25
2022-08-22T00:55:04.412Z,14.21
2022-08-22T00:58:26.601Z,14.17
2022-08-22T01:01:33.941Z,14.13
2022-08-22T01:04:52.400Z,14.11
2022-08-22T01:08:06.269Z,14.08
2022-08-22T01:11:22.886Z,14.06
2022-08-22T01:14:44.014Z,14.05
2022-08-22T01:18:09.455Z,14.03
2022-08-22T01:21:47.110Z,14.04
2022-08-22T01:25:27.715Z,14.04
2022-08-22T01:28:46.058Z,14.04
2022-08-22T01:32:07.638Z,14.05
2022-08-22T01:35:29.457Z,14.07
2022-08-22T01:38:46.907Z,14.10
2022-08-22T01:42:09.413Z,14.12
2022-08-22T01:45:31.076Z,14.14
2022-08-22T01:48:39.449Z,14.14
2022-08-22T01:51:47.934Z,14.14
2022-08-22T01:54:56.142Z,14.13
2022-08-22T01:58:03.735Z,14.12
2022-08-22T02:01:16.694Z,14.11
2022-08-22T02:04:37.263Z,14.11
2022-08-22T02:07:49.913Z,14.09
2022-08-22T02:10:58.471Z,14.08
2022-08-22T02:14:06.270Z,14.07
2022-08-22T02:17:16.071Z,14.06
2022-08-22T02:20:25.164Z,14.03
2022-08-22T02:23:36.030Z,14.03
2022-08-22T02:26:49.523Z,14.02
2022-08-22T02:30:01.337Z,14.02
2022-08-22T02:33:08.504Z,14.02
2022-08-22T02:36:17.899Z,14.02
2022-08-22T02:39:28.314Z,14.03
2022-08-22T02:42:40.001Z,14.04
2022-08-22T02:45:47.594Z,14.04
2022-08-22T02:48:57.532Z,14.06
2022-08-22T02:52:08.570Z,14.04
2022-08-22T02:55:16.874Z,14.05
2022-08-22T02:58:26.262Z,14.02
2022-08-22T03:01:42.723Z,13.98
2022-08-22T03:04:51.279Z,13.95
2022-08-22T03:08:00.630Z,13.92
2022-08-22T03:11:11.862Z,13.89
2022-08-22T03:14:20.215Z,13.88
2022-08-22T03:17:30.626Z,13.86
2022-08-22T03:20:46.342Z,13.85
2022-08-22T03:23:54.047Z,13.84
2022-08-22T03:27:03.011Z,13.83
2022-08-22T03:30:11.400Z,13.82
2022-08-22T03:33:19.404Z,13.82
2022-08-22T03:36:28.205Z,13.82
2022-08-22T03:39:54.451Z,13.82
2022-08-22T03:43:09.707Z,13.82
2022-08-22T03:46:28.188Z,13.83
2022-08-22T03:49:50.227Z,13.82
2022-08-22T03:53:18.510Z,13.83
2022-08-22T03:57:06.496Z,13.83
2022-08-22T04:00:20.657Z,13.86
2022-08-22T04:03:39.876Z,13.89
2022-08-22T04:07:01.553Z,13.90
2022-08-22T04:10:21.135Z,13.92
2022-08-22T04:13:35.652Z,13.94
2022-08-22T04:16:51.139Z,13.96
2022-08-22T04:20:10.201Z,13.97
2022-08-22T04:23:33.017Z,13.99
2022-08-22T04:26:43.847Z,14.03
2022-08-22T04:29:51.511Z,14.05
2022-08-22T04:33:00.125Z,14.07
2022-08-22T04:36:08.745Z,14.08
2022-08-22T04:39:18.845Z,14.09
2022-08-22T04:42:32.623Z,14.10
2022-08-22T04:45:41.805Z,14.13
2022-08-22T04:48:52.589Z,14.17
2022-08-22T04:52:00.949Z,14.21
2022-08-22T04:55:12.229Z,14.25
2022-08-22T04:58:24.127Z,14.29
2022-08-22T05:01:38.887Z,14.31
2022-08-22T05:04:45.867Z,14.32
2022-08-22T05:07:53.200Z,14.31
2022-08-22T05:10:59.667Z,14.33
2022-08-22T05:14:07.329Z,14.33
2022-08-22T05:17:15.645Z,14.35
2022-08-22T05:20:24.644Z,14.36
2022-08-22T05:23:32.241Z,14.35
2022-08-22T05:26:39.858Z,14.37
2022-08-22T05:29:47.923Z,14.40
2022-08-22T05:32:56.566Z,14.45
2022-08-22T05:36:06.753Z,14.48
2022-08-22T05:39:14.714Z,14.50
2022-08-22T05:42:24.309Z,14.53
2022-08-22T05:45:30.318Z,14.55
2022-08-22T05:48:40.242Z,14.57
2022-08-22T05:51:49.288Z,14.60
2022-08-22T05:54:58.039Z,14.63
2022-08-22T05:58:18.761Z,14.67
2022-08-22T06:01:27.759Z,14.70
2022-08-22T06:04:37.042Z,14.73
2022-08-22T06:07:44.974Z,14.75
2022-08-22T06:10:53.128Z,14.78
2022-08-22T06:14:00.019Z,14.78
2022-08-22T06:17:08.871Z,14.83
2022-08-22T06:20:17.539Z,14.88
2022-08-22T06:23:32.715Z,14.93
2022-08-22T06:26:39.567Z,15.02
2022-08-22T06:29:46.904Z,15.07
2022-08-22T06:33:00.064Z,15.13
2022-08-22T06:36:26.317Z,15.19
2022-08-22T06:39:33.389Z,15.27
2022-08-22T06:42:41.701Z,15.32
2022-08-22T06:45:48.480Z,15.40
2022-08-22T06:48:55.796Z,15.47
2022-08-22T06:52:02.566Z,15.54
2022-08-22T06:55:09.192Z,15.61
2022-08-22T06:58:16.754Z,15.64
2022-08-22T07:01:23.701Z,15.67
2022-08-22T07:04:29.324Z,15.67
2022-08-22T07:07:36.987Z,15.66
2022-08-22T07:10:44.362Z,15.65
2022-08-22T07:13:52.896Z,15.68
2022-08-22T07:17:00.186Z,15.66
2022-08-22T07:20:13.355Z,15.68
2022-08-22T07:23:27.312Z,15.70
2022-08-22T07:26:40.024Z,15.69
2022-08-22T07:29:53.807Z,15.72
2022-08-22T07:33:25.727Z,15.78
2022-08-22T07:36:31.947Z,15.85
2022-08-22T07:39:39.666Z,15.91
2022-08-22T07:42:50.003Z,15.94
2022-08-22T07:46:01.099Z,15.97
2022-08-22T07:49:11.687Z,16.02
2022-08-22T07:52:18.439Z,16.08
2022-08-22T07:55:25.508Z,16.11
2022-08-22T07:58:33.948Z,16.18
2022-08-22T08:01:41.225Z,16.21
2022-08-22T08:04:49.627Z,16.15
2022-08-22T08:07:56.296Z,16.09
2022-08-22T08:11:02.291Z,16.08
2022-08-22T08:14:08.892Z,16.11
2022-08-22T08:17:22.768Z,16.15
2022-08-22T08:20:29.642Z,16.21
2022-08-22T08:23:39.721Z,16.23
2022-08-22T08:27:07.719Z,16.25
2022-08-22T08:30:16.505Z,16.25
2022-08-22T08:33:26.711Z,16.26
2022-08-22T08:36:41.664Z,16.31
2022-08-22T08:39:50.866Z,16.35
2022-08-22T08:43:23.862Z,16.41
2022-08-22T08:46:55.401Z,16.47
2022-08-22T08:50:13.870Z,16.57
2022-08-22T08:53:43.264Z,16.67
2022-08-22T08:56:55.008Z,16.78
2022-08-22T09:00:05.764Z,16.80
2022-08-22T09:03:17.345Z,16.79
2022-08-22T09:06:44.812Z,16.80
2022-08-22T09:10:10.067Z,16.79
2022-08-22T09:13:28.429Z,16.78
2022-08-22T09:16:51.611Z,16.83
2022-08-22T09:20:17.755Z,16.88
2022-08-22T09:23:41.990Z,16.94
2022-08-22T09:26:50.863Z,17.08
2022-08-22T09:30:00.064Z,17.26
2022-08-22T09:33:10.090Z,17.38
2022-08-22T09:36:19.114Z,17.48
2022-08-22T09:39:32.399Z,17.57
2022-08-22T09:42:45.006Z,17.63
2022-08-22T09:46:01.931Z,17.66
2022-08-22T09:49:12.316Z,17.79
2022-08-22T09:52:31.996Z,18.05
2022-08-22T09:55:45.373Z,18.31
2022-08-22T09:58:59.726Z,18.55
2022-08-22T10:02:15.715Z,18.76
2022-08-22T10:05:40.614Z,18.85
2022-08-22T10:08:52.088Z,18.76
2022-08-22T10:12:01.555Z,18.74
2022-08-22T10:15:17.219Z,18.79
2022-08-22T10:18:31.578Z,18.81
2022-08-22T10:21:41.848Z,18.83
2022-08-22T10:24:53.149Z,18.74
2022-08-22T10:28:10.496Z,18.59
2022-08-22T10:31:24.158Z,18.51
2022-08-22T10:34:34.303Z,18.44
2022-08-22T10:37:46.115Z,18.38
2022-08-22T10:40:55.649Z,18.29
2022-08-22T10:44:04.471Z,18.23
2022-08-22T10:47:14.786Z,18.14
2022-08-22T10:50:29.010Z,18.00
2022-08-22T10:53:44.101Z,17.80
2022-08-22T10:56:52.967Z,17.65
2022-08-22T11:00:03.622Z,17.59
2022-08-22T11:03:18.707Z,17.56
2022-08-22T11:06:31.293Z,17.49
2022-08-22T11:09:41.152Z,17.40
2022-08-22T11:12:52.709Z,17.31
2022-08-22T11:16:01.392Z,17.28
2022-08-22T11:19:15.881Z,17.31
2022-08-22T11:22:30.410Z,17.23
2022-08-22T11:25:43.886Z,17.12
2022-08-22T11:29:11.303Z,17.00
2022-08-22T11:32:25.624Z,16.94
2022-08-22T11:35:35.642Z,16.90
2022-08-22T11:38:54.284Z,16.91
2022-08-22T11:42:06.626Z,16.97
2022-08-22T11:45:17.248Z,16.98
2022-08-22T11:48:25.809Z,16.98
2022-08-22T11:51:43.688Z,16.89
2022-08-22T11:55:01.035Z,16.76
2022-08-22T11:58:16.773Z,16.67
2022-08-22T12:01:25.025Z,16.59
2022-08-22T12:04:33.711Z,16.54
2022-08-22T12:07:44.441Z,16.54
2022-08-22T12:10:59.847Z,16.58
2022-08-22T12:14:11.359Z,16.58
2022-08-22T12:17:50.742Z,16.57
2022-08-22T12:21:11.225Z,16.55
2022-08-22T12:24:24.874Z,16.52
2022-08-22T12:27:49.728Z,16.51
2022-08-22T12:31:06.758Z,16.54
2022-08-22T12:34:19.964Z,16.58
2022-08-22T12:37:29.446Z,16.61
2022-08-22T12:40:43.721Z,16.62
2022-08-22T12:43:57.934Z,16.66
2022-08-22T12:47:13.609Z,16.69
2022-08-22T12:50:26.438Z,16.73
2022-08-22T12:53:54.801Z,16.76
2022-08-22T12:57:15.266Z,16.80
2022-08-22T13:00:34.459Z,16.91
2022-08-22T13:03:46.316Z,17.09
2022-08-22T13:06:54.769Z,17.35
2022-08-22T13:10:03.641Z,17.57
2022-08-22T13:13:12.151Z,17.86
2022-08-22T13:16:20.525Z,18.00
2022-08-22T13:19:29.989Z,18.11
2022-08-22T13:22:39.526Z,18.23
2022-08-22T13:26:01.265Z,18.54
2022-08-22T13:29:25.091Z,18.82
2022-08-22T13:32:35.207Z,18.92
2022-08-22T13:35:45.471Z,19.02
2022-08-22T13:39:06.635Z,19.02
2022-08-22T13:42:21.213Z,19.08
2022-08-22T13:45:37.263Z,19.17
2022-08-22T13:48:49.525Z,19.42
2022-08-22T13:52:02.514Z,19.60
2022-08-22T13:55:12.304Z,19.71
2022-08-22T13:58:25.148Z,19.71
2022-08-22T14:01:38.796Z,19.58
2022-08-22T14:04:46.148Z,19.59
2022-08-22T14:07:58.309Z,19.67
2022-08-22T14:11:11.180Z,19.75
2022-08-22T14:14:21.906Z,19.99
2022-08-22T14:17:32.171Z,20.30
2022-08-22T14:20:38.080Z,20.60
2022-08-22T14:23:46.931Z,20.76
2022-08-22T14:26:54.445Z,20.80
2022-08-22T14:30:06.930Z,20.95
2022-08-22T14:33:21.548Z,20.91
2022-08-22T14:36:31.064Z,20.94
2022-08-22T14:39:43.771Z,21.13
2022-08-22T14:42:51.277Z,21.59
2022-08-22T14:46:02.177Z,22.00
2022-08-22T14:49:28.645Z,22.38
2022-08-22T14:52:37.553Z,22.43
2022-08-22T14:55:55.160Z,22.39
2022-08-22T14:59:07.068Z,22.36
2022-08-22T15:02:15.435Z,22.35
2022-08-22T15:05:23.688Z,22.40
2022-08-22T15:08:34.204Z,22.70
2022-08-22T15:11:42.242Z,23.02
2022-08-22T15:14:52.255Z,22.68
2022-08-22T15:17:58.100Z,22.33
2022-08-22T15:21:06.763Z,22.15
2022-08-22T15:24:15.030Z,22.02
2022-08-22T15:27:20.968Z,21.94
2022-08-22T15:30:38.483Z,21.89
2022-08-22T15:33:50.928Z,21.78
2022-08-22T15:37:27.521Z,21.63
2022-08-22T15:40:40.317Z,21.38
2022-08-22T15:43:49.531Z,21.30
2022-08-22T15:47:01.607Z,21.22
2022-08-22T15:50:09.485Z,21.09
2022-08-22T15:53:24.109Z,20.89
2022-08-22T15:56:30.627Z,20.62
2022-08-22T15:59:48.172Z,20.56
2022-08-22T16:03:02.240Z,20.45
2022-08-22T16:06:11.406Z,20.33
2022-08-22T16:09:33.594Z,20.07
2022-08-22T16:12:40.665Z,19.83
2022-08-22T16:16:00.145Z,19.69
2022-08-22T16:19:15.730Z,19.62
2022-08-22T16:22:21.090Z,19.49
2022-08-22T16:25:57.703Z,19.38
2022-08-22T16:29:05.716Z,19.33
2022-08-22T16:32:12.607Z,19.23
2022-08-22T16:35:47.879Z,19.16
2022-08-22T16:38:55.877Z,19.11
2022-08-22T16:42:15.055Z,19.10
2022-08-22T16:45:23.165Z,19.05
2022-08-22T16:48:33.485Z,19.00
2022-08-22T16:51:58.999Z,18.97
2022-08-22T16:55:06.059Z,18.96
2022-08-22T16:58:17.871Z,18.91
2022-08-22T17:01:32.142Z,18.79
2022-08-22T17:04:41.674Z,18.72
2022-08-22T17:07:54.048Z,18.61
2022-08-22T17:11:04.155Z,18.57
2022-08-22T17:14:18.734Z,18.51
2022-08-22T17:17:31.150Z,18.43
2022-08-22T17:20:41.199Z,18.35
2022-08-22T17:23:52.196Z,18.31
2022-08-22T17:26:59.766Z,18.26
2022-08-22T17:30:09.344Z,18.19
2022-08-22T17:33:17.439Z,18.12
2022-08-22T17:36:29.088Z,18.02
2022-08-22T17:39:54.401Z,17.96
2022-08-22T17:43:16.426Z,17.91
2022-08-22T17:46:31.685Z,17.85
2022-08-22T17:49:49.184Z,17.83
2022-08-22T17:52:57.771Z,17.78
2022-08-22T17:56:08.718Z,17.76
2022-08-22T17:59:21.068Z,17.72
2022-08-22T18:02:29.710Z,17.70
2022-08-22T18:05:37.545Z,17.65
2022-08-22T18:12:18.452Z,17.60
2022-08-22T18:15:26.766Z,17.58
2022-08-22T18:18:34.494Z,17.55
2022-08-22T18:21:43.118Z,17.55
2022-08-22T18:24:51.053Z,17.54
2022-08-22T18:27:57.813Z,17.53
2022-08-22T18:31:06.926Z,17.51
2022-08-22T18:34:17.102Z,17.52
2022-08-22T18:37:39.783Z,17.52
2022-08-22T18:40:50.208Z,17.53
2022-08-22T18:43:56.957Z,17.52
2022-08-22T18:47:11.165Z,17.52
2022-08-22T18:50:30.447Z,17.52
2022-08-22T18:57:47.517Z,17.49
2022-08-22T19:00:59.169Z,17.48
2022-08-22T19:04:18.450Z,17.49
2022-08-22T19:07:48.185Z,17.47
2022-08-22T19:11:04.331Z,17.46
2022-08-22T19:14:14.277Z,17.42
2022-08-22T19:17:28.548Z,17.42
2022-08-22T19:20:53.121Z,17.41
2022-08-22T19:23:58.551Z,17.42
2022-08-22T19:27:21.215Z,17.41
2022-08-22T19:30:44.580Z,17.40
2022-08-22T19:33:51.404Z,17.37
2022-08-22T19:37:32.300Z,17.36
2022-08-22T19:40:53.544Z,17.34
2022-08-22T19:43:58.814Z,17.32
2022-08-22T19:47:08.387Z,17.31
2022-08-22T19:50:25.352Z,17.30
2022-08-22T19:53:39.105Z,17.29
2022-08-22T19:56:53.367Z,17.28
2022-08-22T20:00:07.732Z,17.25
2022-08-22T20:03:17.519Z,17.24
2022-08-22T20:06:43.624Z,17.23
2022-08-22T20:09:54.819Z,17.23
2022-08-22T20:13:07.739Z,17.22
2022-08-22T20:16:17.186Z,17.20
2022-08-22T20:19:22.779Z,17.20
2022-08-22T20:22:30.333Z,17.20
2022-08-22T20:25:44.037Z,17.17
2022-08-22T20:28:52.474Z,17.16
2022-08-22T20:31:59.062Z,17.13
2022-08-22T20:35:06.026Z,17.13
2022-08-22T20:38:15.471Z,17.12
2022-08-22T20:41:23.702Z,17.13
2022-08-22T20:44:33.243Z,17.13
2022-08-22T20:47:41.874Z,17.14
2022-08-22T20:50:50.381Z,17.12
2022-08-22T20:53:57.848Z,17.13
2022-08-22T20:57:04.727Z,17.14
2022-08-22T21:00:12.804Z,17.11
2022-08-22T21:03:28.123Z,17.10
2022-08-22T21:06:37.668Z,17.11
2022-08-22T21:10:00.679Z,17.12
2022-08-22T21:13:07.934Z,17.11
2022-08-22T21:16:15.616Z,17.12
2022-08-22T21:19:24.910Z,17.11
2022-08-22T21:22:31.745Z,17.10
2022-08-22T21:25:49.878Z,17.06
2022-08-22T21:29:00.087Z,17.02
2022-08-22T21:32:12.377Z,16.99
2022-08-22T21:35:23.438Z,16.94
2022-08-22T21:38:29.278Z,16.92
2022-08-22T21:41:38.222Z,16.90
2022-08-22T21:44:44.661Z,16.88
2022-08-22T21:47:50.134Z,16.87
2022-08-22T21:50:55.550Z,16.85
2022-08-22T21:54:19.145Z,16.83
2022-08-22T21:57:36.591Z,16.82
2022-08-22T22:00:48.927Z,16.83
2022-08-22T22:03:55.417Z,16.81
2022-08-22T22:07:00.788Z,16.82
2022-08-22T22:10:07.546Z,16.82
2022-08-22T22:13:13.134Z,16.81
2022-08-22T22:16:22.299Z,16.78
2022-08-22T22:19:27.569Z,16.78
2022-08-22T22:22:32.782Z,16.77
2022-08-22T22:25:42.915Z,16.76
2022-08-22T22:28:49.246Z,16.78
2022-08-22T22:31:54.642Z,16.80
2022-08-22T22:35:00.053Z,16.80
2022-08-22T22:38:05.466Z,16.79
2022-08-22T22:41:11.068Z,16.78
2022-08-22T22:44:16.354Z,16.75
2022-08-22T22:47:26.739Z,16.75
2022-08-22T22:50:33.522Z,16.74
2022-08-22T22:53:42.687Z,16.74
2022-08-22T22:56:49.483Z,16.74
2022-08-22T22:59:54.969Z,16.77
2022-08-22T23:03:00.905Z,16.78
2022-08-22T23:06:11.095Z,16.81
2022-08-22T23:09:16.456Z,16.83
2022-08-22T23:12:24.037Z,16.84
2022-08-22T23:15:29.695Z,16.83
2022-08-22T23:18:35.169Z,16.84
2022-08-22T23:21:40.716Z,16.82
2022-08-22T23:24:46.118Z,16.78
2022-08-22T23:27:52.568Z,16.78
2022-08-22T23:30:58.092Z,16.78
2022-08-22T23:34:05.666Z,16.75
2022-08-22T23:37:11.083Z,16.74
2022-08-22T23:40:16.632Z,16.72
2022-08-22T23:43:21.944Z,16.71
2022-08-22T23:46:28.357Z,16.69
2022-08-22T23:49:37.542Z,16.69
2022-08-22T23:52:42.883Z,16.69
2022-08-22T23:55:48.103Z,16.68
2022-08-22T23:58:54.388Z,16.68
